createdAt,value
2018-08-22T00:01:55.310Z,6.90
2018-08-22T00:04:29.520Z,6.97
2018-08-22T00:07:03.651Z,6.53
2018-08-22T00:09:39.500Z,6.10
2018-08-22T00:12:18.130Z,6.70
2018-08-22T00:14:52.377Z,6.80
2018-08-22T00:17:26.566Z,6.47
2018-08-22T00:20:00.788Z,6.13
2018-08-22T00:22:36.692Z,6.10
2018-08-22T00:25:12.334Z,6.97
2018-08-22T00:27:47.970Z,6.57
2018-08-22T00:30:22.239Z,6.07
2018-08-22T00:32:56.630Z,5.30
2018-08-22T00:35:31.819Z,6.43
2018-08-22T00:38:06.153Z,7.27
2018-08-22T00:40:40.251Z,6.80
2018-08-22T00:43:14.687Z,6.47
2018-08-22T00:45:48.944Z,6.50
2018-08-22T00:48:23.158Z,6.63
2018-08-22T00:50:58.386Z,6.93
2018-08-22T00:53:34.137Z,6.60
2018-08-22T00:56:09.843Z,6.47
2018-08-22T00:58:44.005Z,7.20
2018-08-22T01:01:18.114Z,6.10
2018-08-22T01:03:53.526Z,6.63
2018-08-22T01:06:27.758Z,5.83
2018-08-22T01:09:03.581Z,6.23
2018-08-22T01:11:39.110Z,6.27
2018-08-22T01:14:14.680Z,6.30
2018-08-22T01:16:48.901Z,6.13
2018-08-22T01:19:23.043Z,6.77
2018-08-22T01:21:58.530Z,6.20
2018-08-22T01:24:32.862Z,6.23
2018-08-22T01:27:07.258Z,6.37
2018-08-22T01:29:41.392Z,6.90
2018-08-22T01:32:17.782Z,7.00
2018-08-22T01:34:52.757Z,5.90
2018-08-22T01:37:26.906Z,5.80
2018-08-22T01:40:02.652Z,7.10
2018-08-22T01:42:36.783Z,7.30
2018-08-22T01:45:12.352Z,6.80
2018-08-22T01:47:47.986Z,6.53
2018-08-22T01:50:22.311Z,6.87
2018-08-22T01:52:57.865Z,6.60
2018-08-22T01:55:33.706Z,6.50
2018-08-22T01:58:07.798Z,6.37
2018-08-22T02:00:49.110Z,5.77
2018-08-22T02:03:24.191Z,6.07
2018-08-22T02:05:58.392Z,5.77
2018-08-22T02:08:33.503Z,5.83
2018-08-22T02:11:07.634Z,6.60
2018-08-22T02:13:43.483Z,6.67
2018-08-22T02:16:17.787Z,5.87
2018-08-22T02:19:00.429Z,6.57
2018-08-22T02:21:36.783Z,6.10
2018-08-22T02:24:12.214Z,5.90
2018-08-22T02:26:46.703Z,5.57
2018-08-22T02:29:22.084Z,7.30
2018-08-22T02:31:56.186Z,5.60
2018-08-22T02:34:30.307Z,6.00
2018-08-22T02:37:04.518Z,5.37
2018-08-22T02:39:40.048Z,5.03
2018-08-22T02:42:15.825Z,6.23
2018-08-22T02:44:50.002Z,5.60
2018-08-22T02:47:37.734Z,6.60
2018-08-22T02:50:12.037Z,5.80
2018-08-22T02:52:47.850Z,6.00
2018-08-22T02:55:23.307Z,5.50
2018-08-22T02:57:57.495Z,5.93
2018-08-22T03:00:31.850Z,5.47
2018-08-22T03:03:07.369Z,5.53
2018-08-22T03:05:41.590Z,6.97
2018-08-22T03:08:20.376Z,6.33
2018-08-22T03:10:54.726Z,5.50
2018-08-22T03:13:30.128Z,6.07
2018-08-22T03:16:04.313Z,6.57
2018-08-22T03:18:39.990Z,6.10
2018-08-22T03:21:17.135Z,6.00
2018-08-22T03:23:52.810Z,6.63
2018-08-22T03:26:28.226Z,6.40
2018-08-22T03:29:02.562Z,5.47
2018-08-22T03:31:36.842Z,5.97
2018-08-22T03:34:10.935Z,5.93
2018-08-22T03:36:45.135Z,5.90
2018-08-22T03:39:20.762Z,5.97
2018-08-22T03:41:54.938Z,6.67
2018-08-22T03:44:30.514Z,5.57
2018-08-22T03:47:04.818Z,8.60
2018-08-22T03:49:38.930Z,5.73
2018-08-22T03:52:14.443Z,5.30
2018-08-22T03:54:49.933Z,5.67
2018-08-22T03:57:24.291Z,6.47
2018-08-22T03:59:58.771Z,6.70
2018-08-22T04:02:34.316Z,6.77
2018-08-22T04:05:08.772Z,6.77
2018-08-22T04:07:43.026Z,6.27
2018-08-22T04:10:18.691Z,6.23
2018-08-22T04:12:54.366Z,6.43
2018-08-22T04:15:28.574Z,6.07
2018-08-22T04:18:02.662Z,6.20
2018-08-22T04:20:38.447Z,5.90
2018-08-22T04:23:13.879Z,7.00
2018-08-22T04:25:49.342Z,5.97
2018-08-22T04:28:23.639Z,6.50
2018-08-22T04:30:58.016Z,6.00
2018-08-22T04:33:32.290Z,5.97
2018-08-22T04:36:06.494Z,6.33
2018-08-22T04:38:48.212Z,6.03
2018-08-22T04:41:23.460Z,7.17
2018-08-22T04:43:57.643Z,5.40
2018-08-22T04:46:32.124Z,5.80
2018-08-22T04:49:06.235Z,6.47
2018-08-22T04:51:41.963Z,7.17
2018-08-22T04:54:16.120Z,5.70
2018-08-22T04:56:51.795Z,6.10
2018-08-22T04:59:25.949Z,6.47
2018-08-22T05:02:01.398Z,6.50
2018-08-22T05:04:35.551Z,6.30
2018-08-22T05:07:11.258Z,6.90
2018-08-22T05:09:46.520Z,6.60
2018-08-22T05:12:22.155Z,5.30
2018-08-22T05:14:56.399Z,7.03
2018-08-22T05:17:32.134Z,5.67
2018-08-22T05:20:07.962Z,6.83
2018-08-22T05:22:50.096Z,6.23
2018-08-22T05:25:24.220Z,6.00
2018-08-22T05:27:58.675Z,5.97
2018-08-22T05:30:32.887Z,5.20
2018-08-22T05:33:07.054Z,5.67
2018-08-22T05:35:41.160Z,5.80
2018-08-22T05:38:16.390Z,5.03
2018-08-22T05:40:51.851Z,5.50
2018-08-22T05:43:25.927Z,5.93
2018-08-22T05:46:00.092Z,5.40
2018-08-22T05:48:34.363Z,5.07
2018-08-22T05:51:08.531Z,5.53
2018-08-22T05:53:43.906Z,5.40
2018-08-22T05:56:19.395Z,5.20
2018-08-22T05:58:54.431Z,5.93
2018-08-22T06:01:28.737Z,4.77
2018-08-22T06:04:09.382Z,5.70
2018-08-22T06:06:43.597Z,5.70
2018-08-22T06:09:28.874Z,5.40
2018-08-22T06:12:04.563Z,5.60
2018-08-22T06:14:40.317Z,5.60
2018-08-22T06:17:14.514Z,5.23
2018-08-22T06:19:50.309Z,5.80
2018-08-22T06:22:25.682Z,4.80
2018-08-22T06:25:01.086Z,5.93
2018-08-22T06:27:35.742Z,4.67
2018-08-22T06:30:10.999Z,4.60
2018-08-22T06:32:45.572Z,6.60
2018-08-22T06:35:19.732Z,4.83
2018-08-22T06:37:53.868Z,5.00
2018-08-22T06:40:29.198Z,4.63
2018-08-22T06:43:03.758Z,4.87
2018-08-22T06:45:37.998Z,5.00
2018-08-22T06:48:12.502Z,4.90
2018-08-22T06:50:48.158Z,4.50
2018-08-22T06:53:23.952Z,5.27
2018-08-22T06:55:59.653Z,5.50
2018-08-22T06:58:33.767Z,4.73
2018-08-22T07:01:08.299Z,4.70
2018-08-22T07:03:43.948Z,5.33
2018-08-22T07:06:19.457Z,5.10
2018-08-22T07:08:55.470Z,5.23
2018-08-22T07:11:29.583Z,4.57
2018-08-22T07:14:05.565Z,4.93
2018-08-22T07:16:39.774Z,4.87
2018-08-22T07:19:15.894Z,4.63
2018-08-22T07:21:52.510Z,4.67
2018-08-22T07:24:27.867Z,4.83
2018-08-22T07:27:02.278Z,4.40
2018-08-22T07:29:36.570Z,4.40
2018-08-22T07:32:10.706Z,5.23
2018-08-22T07:34:44.915Z,4.70
2018-08-22T07:37:20.914Z,4.77
2018-08-22T07:39:56.302Z,5.00
2018-08-22T07:42:30.684Z,5.00
2018-08-22T07:45:05.387Z,4.90
2018-08-22T07:47:39.650Z,5.30
2018-08-22T07:50:13.882Z,5.40
2018-08-22T07:52:54.503Z,5.37
2018-08-22T07:55:30.047Z,5.03
2018-08-22T07:58:05.274Z,5.07
2018-08-22T08:00:40.886Z,5.40
2018-08-22T08:03:16.244Z,4.77
2018-08-22T08:05:51.863Z,4.67
2018-08-22T08:08:28.981Z,4.50
2018-08-22T08:11:05.060Z,5.57
2018-08-22T08:13:40.867Z,5.60
2018-08-22T08:16:15.002Z,5.13
2018-08-22T08:18:49.738Z,5.40
2018-08-22T08:21:30.479Z,5.40
2018-08-22T08:24:06.331Z,5.73
2018-08-22T08:26:40.570Z,4.53
2018-08-22T08:29:14.679Z,4.20
2018-08-22T08:31:48.818Z,5.50
2018-08-22T08:34:23.407Z,4.70
2018-08-22T08:36:57.524Z,5.33
2018-08-22T08:39:33.479Z,5.03
2018-08-22T08:42:07.755Z,5.10
2018-08-22T08:44:42.733Z,5.87
2018-08-22T08:47:17.015Z,4.80
2018-08-22T08:49:51.388Z,4.57
2018-08-22T08:52:27.124Z,5.20
2018-08-22T08:55:02.576Z,5.57
2018-08-22T08:57:36.699Z,4.80
2018-08-22T09:00:10.894Z,5.30
2018-08-22T09:02:46.454Z,5.07
2018-08-22T09:05:20.709Z,5.03
2018-08-22T09:07:58.998Z,5.30
2018-08-22T09:10:33.257Z,5.30
2018-08-22T09:13:10.187Z,5.50
2018-08-22T09:15:44.470Z,5.50
2018-08-22T09:18:18.610Z,5.40
2018-08-22T09:20:53.843Z,5.37
2018-08-22T09:23:29.923Z,4.87
2018-08-22T09:26:04.017Z,6.80
2018-08-22T09:28:38.318Z,5.40
2018-08-22T09:31:12.602Z,5.53
2018-08-22T09:33:46.811Z,5.17
2018-08-22T09:36:21.158Z,5.77
2018-08-22T09:38:56.637Z,5.20
2018-08-22T09:43:00.368Z,5.97
2018-08-22T09:45:34.939Z,6.70
2018-08-22T09:48:10.338Z,5.43
2018-08-22T09:50:44.687Z,5.50
2018-08-22T09:53:20.619Z,6.13
2018-08-22T09:55:56.374Z,5.70
2018-08-22T09:58:32.002Z,5.23
2018-08-22T10:01:13.096Z,5.70
2018-08-22T10:03:56.094Z,5.60
2018-08-22T10:06:32.750Z,5.90
2018-08-22T10:09:08.619Z,4.87
2018-08-22T10:11:42.860Z,6.30
2018-08-22T10:14:18.278Z,5.30
2018-08-22T10:16:52.601Z,5.73
2018-08-22T10:19:28.100Z,5.60
2018-08-22T10:22:03.829Z,6.23
2018-08-22T10:24:39.260Z,5.10
2018-08-22T10:27:13.547Z,6.67
2018-08-22T10:29:47.737Z,6.93
2018-08-22T10:32:21.890Z,5.50
2018-08-22T10:34:56.195Z,5.50
2018-08-22T10:37:30.424Z,5.73
2018-08-22T10:40:06.067Z,7.00
2018-08-22T10:42:41.566Z,6.23
2018-08-22T10:45:15.964Z,6.27
2018-08-22T10:47:50.002Z,6.43
2018-08-22T10:50:24.252Z,5.47
2018-08-22T10:52:59.661Z,6.23
2018-08-22T10:55:35.156Z,6.23
2018-08-22T10:58:10.815Z,6.40
2018-08-22T11:00:51.086Z,5.20
2018-08-22T11:03:27.157Z,5.90
2018-08-22T11:06:01.468Z,6.20
2018-08-22T11:08:37.095Z,5.70
2018-08-22T11:11:11.410Z,6.93
2018-08-22T11:13:46.890Z,6.20
2018-08-22T11:16:21.122Z,6.80
2018-08-22T11:19:03.663Z,6.20
2018-08-22T11:21:44.850Z,6.50
2018-08-22T11:24:26.096Z,6.50
2018-08-22T11:27:06.134Z,6.20
2018-08-22T11:29:47.155Z,6.40
2018-08-22T11:32:27.138Z,6.20
2018-08-22T11:35:02.426Z,7.23
2018-08-22T11:37:36.782Z,6.93
2018-08-22T11:40:12.871Z,5.80
2018-08-22T11:42:47.051Z,7.00
2018-08-22T11:45:21.329Z,6.10
2018-08-22T11:47:55.593Z,6.20
2018-08-22T11:50:31.354Z,5.93
2018-08-22T11:53:06.923Z,6.77
2018-08-22T11:55:42.822Z,5.93
2018-08-22T11:58:17.271Z,5.90
2018-08-22T12:00:51.469Z,5.43
2018-08-22T12:03:27.165Z,6.27
2018-08-22T12:06:01.797Z,6.00
2018-08-22T12:08:38.954Z,6.07
2018-08-22T12:11:13.087Z,5.93
2018-08-22T12:13:48.962Z,6.23
2018-08-22T12:16:25.226Z,5.20
2018-08-22T12:19:06.142Z,6.20
2018-08-22T12:21:42.580Z,5.50
2018-08-22T12:24:18.514Z,5.93
2018-08-22T12:26:52.770Z,6.50
2018-08-22T12:29:28.800Z,5.30
2018-08-22T12:32:02.971Z,6.30
2018-08-22T12:34:38.480Z,5.87
2018-08-22T12:37:19.788Z,6.07
2018-08-22T12:39:55.236Z,6.90
2018-08-22T12:42:29.702Z,6.37
2018-08-22T12:45:03.860Z,6.23
2018-08-22T12:47:39.450Z,6.30
2018-08-22T12:50:13.969Z,6.60
2018-08-22T12:52:49.676Z,5.70
2018-08-22T12:55:25.327Z,5.90
2018-08-22T12:57:59.612Z,6.30
2018-08-22T13:00:33.941Z,5.63
2018-08-22T13:03:09.379Z,6.10
2018-08-22T13:05:43.603Z,5.47
2018-08-22T13:08:19.246Z,5.97
2018-08-22T13:10:53.555Z,6.10
2018-08-22T13:13:29.335Z,6.50
2018-08-22T13:16:03.458Z,6.80
2018-08-22T13:18:38.980Z,6.10
2018-08-22T13:21:18.430Z,5.90
2018-08-22T13:23:53.774Z,5.83
2018-08-22T13:26:29.171Z,5.90
2018-08-22T13:29:03.363Z,5.57
2018-08-22T13:31:37.639Z,5.23
2018-08-22T13:34:11.738Z,5.60
2018-08-22T13:36:46.005Z,5.73
2018-08-22T13:39:21.287Z,5.93
2018-08-22T13:41:55.670Z,6.00
2018-08-22T13:44:31.178Z,6.10
2018-08-22T13:47:05.375Z,5.07
2018-08-22T13:49:39.719Z,6.37
2018-08-22T13:52:15.495Z,5.87
2018-08-22T13:54:50.432Z,5.70
2018-08-22T13:57:25.714Z,5.80
2018-08-22T14:00:00.627Z,5.47
2018-08-22T14:02:36.074Z,5.60
2018-08-22T14:05:10.178Z,5.80
2018-08-22T14:07:44.451Z,5.50
2018-08-22T14:10:19.987Z,5.70
2018-08-22T14:12:55.477Z,6.07
2018-08-22T14:15:31.244Z,5.87
2018-08-22T14:18:06.821Z,6.60
2018-08-22T14:20:42.910Z,5.20
2018-08-22T14:23:18.648Z,6.10
2018-08-22T14:25:52.963Z,6.00
2018-08-22T14:28:27.136Z,5.47
2018-08-22T14:31:01.400Z,5.40
2018-08-22T14:33:35.819Z,6.40
2018-08-22T14:36:09.774Z,6.50
2018-08-22T14:38:50.964Z,5.10
2018-08-22T14:41:26.305Z,6.07
2018-08-22T14:44:00.731Z,5.73
2018-08-22T14:46:34.976Z,6.93
2018-08-22T14:49:10.349Z,5.27
2018-08-22T14:51:48.403Z,5.43
2018-08-22T14:54:22.608Z,5.73
2018-08-22T14:56:58.114Z,5.50
2018-08-22T14:59:32.326Z,5.20
2018-08-22T15:02:06.475Z,5.90
2018-08-22T15:04:40.951Z,4.97
2018-08-22T15:07:15.100Z,5.50
2018-08-22T15:10:01.703Z,6.43
2018-08-22T15:12:37.626Z,5.03
2018-08-22T15:15:13.208Z,6.07
2018-08-22T15:17:47.316Z,5.50
2018-08-22T15:20:22.788Z,5.70
2018-08-22T15:22:58.722Z,5.80
2018-08-22T15:25:34.187Z,5.77
2018-08-22T15:28:08.358Z,5.60
2018-08-22T15:30:42.497Z,5.53
2018-08-22T15:33:16.689Z,5.40
2018-08-22T15:35:52.260Z,6.00
2018-08-22T15:38:26.470Z,5.00
2018-08-22T15:41:02.066Z,5.23
2018-08-22T15:43:36.594Z,5.23
2018-08-22T15:46:12.205Z,5.70
2018-08-22T15:48:46.592Z,5.57
2018-08-22T15:51:20.831Z,5.77
2018-08-22T15:54:07.498Z,5.60
2018-08-22T15:56:43.399Z,5.50
2018-08-22T15:59:18.098Z,4.87
2018-08-22T16:01:52.094Z,5.10
2018-08-22T16:04:27.487Z,5.83
2018-08-22T16:07:07.690Z,5.80
2018-08-22T16:09:43.099Z,5.40
2018-08-22T16:12:20.376Z,5.30
2018-08-22T16:14:54.602Z,5.03
2018-08-22T16:17:30.243Z,6.00
2018-08-22T16:20:05.456Z,6.13
2018-08-22T16:25:24.734Z,5.87
2018-08-22T16:27:59.550Z,6.20
2018-08-22T16:30:33.668Z,5.50
2018-08-22T16:33:09.379Z,5.83
2018-08-22T16:35:43.688Z,5.73
2018-08-22T16:38:19.109Z,8.60
2018-08-22T16:40:54.701Z,5.43
2018-08-22T16:43:41.176Z,6.07
2018-08-22T16:46:16.050Z,6.00
2018-08-22T16:48:51.743Z,6.03
2018-08-22T16:51:26.052Z,5.30
2018-08-22T16:54:06.974Z,5.77
2018-08-22T16:56:42.483Z,5.63
2018-08-22T16:59:18.459Z,4.60
2018-08-22T17:01:52.672Z,5.50
2018-08-22T17:04:27.077Z,6.43
2018-08-22T17:07:05.489Z,6.67
2018-08-22T17:09:40.803Z,6.00
2018-08-22T17:12:19.994Z,7.13
2018-08-22T17:14:54.418Z,6.00
2018-08-22T17:17:30.078Z,5.70
2018-08-22T17:20:05.798Z,5.10
2018-08-22T17:25:29.000Z,6.60
2018-08-22T17:28:10.803Z,6.57
2018-08-22T17:30:44.990Z,6.27
2018-08-22T17:33:18.973Z,6.23
2018-08-22T17:35:57.083Z,11.30
2018-08-22T17:38:31.347Z,9.80
2018-08-22T17:41:06.831Z,10.90
2018-08-22T17:43:53.907Z,9.77
2018-08-22T17:46:29.931Z,8.27
2018-08-22T17:49:04.152Z,7.57
2018-08-22T17:51:54.562Z,7.50
2018-08-22T17:54:29.344Z,7.80
2018-08-22T17:57:11.344Z,6.73
2018-08-22T17:59:46.449Z,7.03
2018-08-22T18:02:20.549Z,6.90
2018-08-22T18:04:56.574Z,6.07
2018-08-22T18:07:31.969Z,7.07
2018-08-22T18:10:07.568Z,6.30
2018-08-22T18:14:13.094Z,6.90
2018-08-22T18:16:51.420Z,6.60
2018-08-22T18:19:27.250Z,5.90
2018-08-22T18:22:02.874Z,6.00
2018-08-22T18:24:44.270Z,7.40
2018-08-22T18:27:18.613Z,6.00
2018-08-22T18:29:52.929Z,6.13
2018-08-22T18:32:27.064Z,7.47
2018-08-22T18:35:09.204Z,6.40
2018-08-22T18:37:44.696Z,6.77
2018-08-22T18:40:21.695Z,6.17
2018-08-22T18:42:59.967Z,6.80
2018-08-22T18:45:38.631Z,6.37
2018-08-22T18:48:12.807Z,7.00
2018-08-22T18:50:47.050Z,7.20
2018-08-22T18:53:22.388Z,6.60
2018-08-22T18:56:04.771Z,8.37
2018-08-22T18:58:40.258Z,6.80
2018-08-22T19:01:14.549Z,6.70
2018-08-22T19:03:49.055Z,6.07
2018-08-22T19:06:23.250Z,6.97
2018-08-22T19:08:59.686Z,7.17
2018-08-22T19:11:41.498Z,6.53
2018-08-22T19:14:21.686Z,8.30
2018-08-22T19:16:55.919Z,8.10
2018-08-22T19:19:32.495Z,7.40
2018-08-22T19:22:08.108Z,7.37
2018-08-22T19:25:14.495Z,7.70
2018-08-22T19:27:48.597Z,8.20
2018-08-22T19:30:23.146Z,8.03
2018-08-22T19:32:57.891Z,8.07
2018-08-22T19:35:48.025Z,8.63
2018-08-22T19:38:25.170Z,8.60
2018-08-22T19:41:05.042Z,8.50
2018-08-22T19:43:39.514Z,8.73
2018-08-22T19:46:14.984Z,9.63
2018-08-22T19:48:49.748Z,11.33
2018-08-22T19:51:23.746Z,11.30
2018-08-22T19:54:03.543Z,8.30
2018-08-22T19:56:38.992Z,11.30
2018-08-22T19:59:13.568Z,9.97
2018-08-22T20:01:47.855Z,8.73
2018-08-22T20:04:23.638Z,11.23
2018-08-22T20:06:57.784Z,9.20
2018-08-22T20:09:33.967Z,7.53
2018-08-22T20:12:20.018Z,7.10
2018-08-22T20:14:54.807Z,7.20
2018-08-22T20:17:30.955Z,7.70
2018-08-22T20:20:07.058Z,8.33
2018-08-22T20:22:51.283Z,8.63
2018-08-22T20:25:26.304Z,7.90
2018-08-22T20:28:00.566Z,7.03
2018-08-22T20:30:34.852Z,9.53
2018-08-22T20:33:11.399Z,7.80
2018-08-22T20:35:47.113Z,7.60
2018-08-22T20:38:21.156Z,8.20
2018-08-22T20:41:03.064Z,7.90
2018-08-22T20:43:37.284Z,8.00
2018-08-22T20:46:13.287Z,8.00
2018-08-22T20:48:48.879Z,7.80
2018-08-22T20:51:23.642Z,8.70
2018-08-22T20:54:03.435Z,7.50
2018-08-22T20:56:47.643Z,7.83
2018-08-22T20:59:22.259Z,7.10
2018-08-22T21:02:00.629Z,8.00
2018-08-22T21:04:36.656Z,7.83
2018-08-22T21:07:10.819Z,10.07
2018-08-22T21:09:46.470Z,8.07
2018-08-22T21:12:22.261Z,8.77
2018-08-22T21:14:57.925Z,8.97
2018-08-22T21:17:32.041Z,7.47
2018-08-22T21:20:15.293Z,7.80
2018-08-22T21:22:54.427Z,8.10
2018-08-22T21:25:28.750Z,8.03
2018-08-22T21:28:04.355Z,8.20
2018-08-22T21:30:38.808Z,8.00
2018-08-22T21:33:14.334Z,7.80
2018-08-22T21:35:48.980Z,8.70
2018-08-22T21:38:24.305Z,8.07
2018-08-22T21:41:00.137Z,8.30
2018-08-22T21:43:34.277Z,8.53
2018-08-22T21:46:09.871Z,9.73
2018-08-22T21:48:43.828Z,7.80
2018-08-22T21:51:18.933Z,8.10
2018-08-22T21:53:53.292Z,8.63
2018-08-22T21:56:28.479Z,8.87
2018-08-22T21:59:02.982Z,8.63
2018-08-22T22:01:45.334Z,8.07
2018-08-22T22:04:26.233Z,9.10
2018-08-22T22:07:00.674Z,10.37
2018-08-22T22:09:36.895Z,11.67
2018-08-22T22:12:25.245Z,11.30
2018-08-22T22:14:59.346Z,8.83
2018-08-22T22:17:33.406Z,8.47
2018-08-22T22:20:08.704Z,7.97
2018-08-22T22:25:33.439Z,9.90
2018-08-22T22:28:07.663Z,8.20
2018-08-22T22:30:43.388Z,8.17
2018-08-22T22:33:17.678Z,7.80
2018-08-22T22:35:51.959Z,8.60
2018-08-22T22:38:26.166Z,8.50
2018-08-22T22:41:01.338Z,9.17
2018-08-22T22:43:35.675Z,10.10
2018-08-22T22:46:11.147Z,8.60
2018-08-22T22:48:45.150Z,8.77
2018-08-22T22:51:19.473Z,9.70
2018-08-22T22:53:53.687Z,8.57
2018-08-22T22:56:29.207Z,8.10
2018-08-22T22:59:03.320Z,8.20
2018-08-22T23:01:38.083Z,8.30
2018-08-22T23:04:13.836Z,8.40
2018-08-22T23:06:49.418Z,8.77
2018-08-22T23:09:25.048Z,9.13
2018-08-22T23:12:00.270Z,8.97
2018-08-22T23:14:36.023Z,8.83
2018-08-22T23:17:10.667Z,7.90
2018-08-22T23:19:46.546Z,8.70
2018-08-22T23:22:30.859Z,9.23
2018-08-22T23:25:06.314Z,7.90
2018-08-22T23:27:41.962Z,9.20
2018-08-22T23:30:16.988Z,8.83
2018-08-22T23:32:51.140Z,8.03
2018-08-22T23:35:27.870Z,8.23
2018-08-22T23:38:03.218Z,8.00
2018-08-22T23:40:38.415Z,8.87
2018-08-22T23:43:12.611Z,7.83
2018-08-22T23:45:53.350Z,9.63
2018-08-22T23:48:33.339Z,8.87
2018-08-22T23:51:10.951Z,8.90
2018-08-22T23:53:47.034Z,8.27
2018-08-22T23:56:25.160Z,7.93
2018-08-22T23:58:59.717Z,9.13
